sensor_id;sensor_type;location;lat;lon;timestamp;temperature;humidity
2453;DHT22;63678;47.994;7.854;2023-11-21T00:00:21;9.60;99.90
2453;DHT22;63678;47.994;7.854;2023-11-21T00:02:54;9.60;99.90
2453;DHT22;63678;47.994;7.854;2023-11-21T00:07:59;9.60;99.90
2453;DHT22;63678;47.994;7.854;2023-11-21T00:10:31;9.60;99.90
2453;DHT22;63678;47.994;7.854;2023-11-21T00:13:03;9.60;99.90
2453;DHT22;63678;47.994;7.854;2023-11-21T00:15:36;9.60;99.90
2453;DHT22;63678;47.994;7.854;2023-11-21T00:18:08;9.50;99.90
2453;DHT22;63678;47.994;7.854;2023-11-21T00:25:46;9.40;99.90
2453;DHT22;63678;47.994;7.854;2023-11-21T00:28:18;9.40;99.90
2453;DHT22;63678;47.994;7.854;2023-11-21T00:35:59;9.50;99.90
2453;DHT22;63678;47.994;7.854;2023-11-21T00:38:32;9.50;99.90
2453;DHT22;63678;47.994;7.854;2023-11-21T00:41:05;9.50;99.90
2453;DHT22;63678;47.994;7.854;2023-11-21T00:43:38;9.50;99.90
2453;DHT22;63678;47.994;7.854;2023-11-21T00:46:10;9.50;99.90
2453;DHT22;63678;47.994;7.854;2023-11-21T00:48:43;9.50;99.90
2453;DHT22;63678;47.994;7.854;2023-11-21T00:51:15;9.50;99.90
2453;DHT22;63678;47.994;7.854;2023-11-21T00:53:48;9.40;99.90
2453;DHT22;63678;47.994;7.854;2023-11-21T00:58:54;9.50;99.90
2453;DHT22;63678;47.994;7.854;2023-11-21T01:01:26;9.50;99.90
2453;DHT22;63678;47.994;7.854;2023-11-21T01:03:58;9.50;99.90
2453;DHT22;63678;47.994;7.854;2023-11-21T01:06:31;9.50;99.90
2453;DHT22;63678;47.994;7.854;2023-11-21T01:09:03;9.50;99.90
2453;DHT22;63678;47.994;7.854;2023-11-21T01:12:11;9.40;99.90
2453;DHT22;63678;47.994;7.854;2023-11-21T01:14:44;9.40;99.90
2453;DHT22;63678;47.994;7.854;2023-11-21T01:17:17;9.40;99.90
2453;DHT22;63678;47.994;7.854;2023-11-21T01:19:50;9.40;99.90
2453;DHT22;63678;47.994;7.854;2023-11-21T01:22:23;9.40;99.90
2453;DHT22;63678;47.994;7.854;2023-11-21T01:24:58;9.40;99.90
2453;DHT22;63678;47.994;7.854;2023-11-21T01:27:30;9.40;99.90
2453;DHT22;63678;47.994;7.854;2023-11-21T01:30:03;9.40;99.90
2453;DHT22;63678;47.994;7.854;2023-11-21T01:32:37;9.50;99.90
2453;DHT22;63678;47.994;7.854;2023-11-21T01:35:09;9.50;99.90
2453;DHT22;63678;47.994;7.854;2023-11-21T01:47:54;9.40;99.90
2453;DHT22;63678;47.994;7.854;2023-11-21T01:50:28;9.40;99.90
2453;DHT22;63678;47.994;7.854;2023-11-21T01:55:35;9.50;99.90
2453;DHT22;63678;47.994;7.854;2023-11-21T01:58:07;9.50;99.90
2453;DHT22;63678;47.994;7.854;2023-11-21T02:00:39;9.50;99.90
2453;DHT22;63678;47.994;7.854;2023-11-21T02:03:12;9.40;99.90
2453;DHT22;63678;47.994;7.854;2023-11-21T02:05:44;9.50;99.90
2453;DHT22;63678;47.994;7.854;2023-11-21T02:10:51;9.50;99.90
2453;DHT22;63678;47.994;7.854;2023-11-21T02:13:24;9.50;99.90
2453;DHT22;63678;47.994;7.854;2023-11-21T02:18:30;9.50;99.90
2453;DHT22;63678;47.994;7.854;2023-11-21T02:21:04;9.50;99.90
2453;DHT22;63678;47.994;7.854;2023-11-21T02:23:37;9.50;99.90
2453;DHT22;63678;47.994;7.854;2023-11-21T02:26:14;9.50;99.90
2453;DHT22;63678;47.994;7.854;2023-11-21T02:28:46;9.50;99.90
2453;DHT22;63678;47.994;7.854;2023-11-21T02:31:19;9.50;99.90
2453;DHT22;63678;47.994;7.854;2023-11-21T02:36:25;9.40;99.90
2453;DHT22;63678;47.994;7.854;2023-11-21T02:41:30;9.40;99.90
2453;DHT22;63678;47.994;7.854;2023-11-21T02:44:04;9.40;99.90
2453;DHT22;63678;47.994;7.854;2023-11-21T02:46:38;9.40;99.90
2453;DHT22;63678;47.994;7.854;2023-11-21T02:49:12;9.40;99.90
2453;DHT22;63678;47.994;7.854;2023-11-21T02:51:44;9.40;99.90
2453;DHT22;63678;47.994;7.854;2023-11-21T02:54:17;9.40;99.90
2453;DHT22;63678;47.994;7.854;2023-11-21T02:59:23;9.40;99.90
2453;DHT22;63678;47.994;7.854;2023-11-21T03:01:56;9.40;99.90
2453;DHT22;63678;47.994;7.854;2023-11-21T03:04:29;9.40;99.90
2453;DHT22;63678;47.994;7.854;2023-11-21T03:07:04;9.30;99.90
2453;DHT22;63678;47.994;7.854;2023-11-21T03:14:44;9.40;99.90
2453;DHT22;63678;47.994;7.854;2023-11-21T03:17:16;9.30;99.90
2453;DHT22;63678;47.994;7.854;2023-11-21T03:19:48;9.30;99.90
2453;DHT22;63678;47.994;7.854;2023-11-21T03:22:21;9.40;99.90
2453;DHT22;63678;47.994;7.854;2023-11-21T03:24:53;9.40;99.90
2453;DHT22;63678;47.994;7.854;2023-11-21T03:27:26;9.40;99.90
2453;DHT22;63678;47.994;7.854;2023-11-21T03:35:05;9.40;99.90
2453;DHT22;63678;47.994;7.854;2023-11-21T03:37:38;9.40;99.90
2453;DHT22;63678;47.994;7.854;2023-11-21T03:40:15;9.50;99.90
2453;DHT22;63678;47.994;7.854;2023-11-21T03:45:20;9.40;99.90
2453;DHT22;63678;47.994;7.854;2023-11-21T03:47:53;9.40;99.90
2453;DHT22;63678;47.994;7.854;2023-11-21T03:50:25;9.40;99.90
2453;DHT22;63678;47.994;7.854;2023-11-21T03:52:58;9.50;99.90
2453;DHT22;63678;47.994;7.854;2023-11-21T03:55:32;9.50;99.90
2453;DHT22;63678;47.994;7.854;2023-11-21T03:58:05;9.40;99.90
2453;DHT22;63678;47.994;7.854;2023-11-21T04:00:37;9.50;99.90
2453;DHT22;63678;47.994;7.854;2023-11-21T04:03:10;9.40;99.90
2453;DHT22;63678;47.994;7.854;2023-11-21T04:05:42;9.40;99.90
2453;DHT22;63678;47.994;7.854;2023-11-21T04:08:15;9.40;99.90
2453;DHT22;63678;47.994;7.854;2023-11-21T04:10:47;9.30;99.90
2453;DHT22;63678;47.994;7.854;2023-11-21T04:15:53;9.30;99.90
2453;DHT22;63678;47.994;7.854;2023-11-21T04:18:26;9.30;99.90
2453;DHT22;63678;47.994;7.854;2023-11-21T04:20:58;9.30;99.90
2453;DHT22;63678;47.994;7.854;2023-11-21T04:23:30;10.90;99.90
2453;DHT22;63678;47.994;7.854;2023-11-21T04:26:04;9.30;99.90
2453;DHT22;63678;47.994;7.854;2023-11-21T04:28:36;9.30;99.90
2453;DHT22;63678;47.994;7.854;2023-11-21T04:31:09;9.30;99.90
2453;DHT22;63678;47.994;7.854;2023-11-21T04:33:41;9.30;99.90
2453;DHT22;63678;47.994;7.854;2023-11-21T04:36:14;9.30;99.90
2453;DHT22;63678;47.994;7.854;2023-11-21T04:38:46;9.30;99.90
2453;DHT22;63678;47.994;7.854;2023-11-21T04:41:18;9.20;99.90
2453;DHT22;63678;47.994;7.854;2023-11-21T04:43:51;9.30;99.90
2453;DHT22;63678;47.994;7.854;2023-11-21T04:46:23;9.40;99.90
2453;DHT22;63678;47.994;7.854;2023-11-21T04:48:55;9.40;99.90
2453;DHT22;63678;47.994;7.854;2023-11-21T04:51:28;9.30;99.90
2453;DHT22;63678;47.994;7.854;2023-11-21T04:54:00;9.30;99.90
2453;DHT22;63678;47.994;7.854;2023-11-21T04:56:33;9.30;99.90
2453;DHT22;63678;47.994;7.854;2023-11-21T05:01:39;9.30;99.90
2453;DHT22;63678;47.994;7.854;2023-11-21T05:04:11;9.20;99.90
2453;DHT22;63678;47.994;7.854;2023-11-21T05:06:44;9.20;99.90
2453;DHT22;63678;47.994;7.854;2023-11-21T05:09:16;9.20;99.90
2453;DHT22;63678;47.994;7.854;2023-11-21T05:11:49;9.20;99.90
2453;DHT22;63678;47.994;7.854;2023-11-21T05:14:21;9.10;99.90
2453;DHT22;63678;47.994;7.854;2023-11-21T05:16:54;9.10;99.90
2453;DHT22;63678;47.994;7.854;2023-11-21T05:19:27;11.30;99.90
2453;DHT22;63678;47.994;7.854;2023-11-21T05:24:33;9.20;99.90
2453;DHT22;63678;47.994;7.854;2023-11-21T05:27:05;9.20;99.90
2453;DHT22;63678;47.994;7.854;2023-11-21T05:29:37;9.20;99.90
2453;DHT22;63678;47.994;7.854;2023-11-21T05:32:10;9.20;99.90
2453;DHT22;63678;47.994;7.854;2023-11-21T05:34:43;9.20;99.90
2453;DHT22;63678;47.994;7.854;2023-11-21T05:39:49;9.10;99.90
2453;DHT22;63678;47.994;7.854;2023-11-21T05:44:56;8.90;99.90
2453;DHT22;63678;47.994;7.854;2023-11-21T05:47:31;8.90;99.90
2453;DHT22;63678;47.994;7.854;2023-11-21T05:50:05;8.90;99.90
2453;DHT22;63678;47.994;7.854;2023-11-21T05:52:38;9.00;99.90
2453;DHT22;63678;47.994;7.854;2023-11-21T05:55:12;8.90;99.90
2453;DHT22;63678;47.994;7.854;2023-11-21T05:57:45;8.90;99.90
2453;DHT22;63678;47.994;7.854;2023-11-21T06:00:18;8.90;99.90
2453;DHT22;63678;47.994;7.854;2023-11-21T06:02:53;9.00;99.90
2453;DHT22;63678;47.994;7.854;2023-11-21T06:05:27;8.90;99.90
2453;DHT22;63678;47.994;7.854;2023-11-21T06:08:00;9.00;99.90
2453;DHT22;63678;47.994;7.854;2023-11-21T06:10:34;9.00;99.90
2453;DHT22;63678;47.994;7.854;2023-11-21T06:15:40;8.90;99.90
2453;DHT22;63678;47.994;7.854;2023-11-21T06:20:46;8.90;99.90
2453;DHT22;63678;47.994;7.854;2023-11-21T06:25:52;9.00;99.90
2453;DHT22;63678;47.994;7.854;2023-11-21T06:30:58;9.00;99.90
2453;DHT22;63678;47.994;7.854;2023-11-21T06:33:33;9.00;99.90
2453;DHT22;63678;47.994;7.854;2023-11-21T06:36:07;9.10;99.90
2453;DHT22;63678;47.994;7.854;2023-11-21T06:38:40;9.00;99.90
2453;DHT22;63678;47.994;7.854;2023-11-21T06:41:12;9.00;99.90
2453;DHT22;63678;47.994;7.854;2023-11-21T06:48:53;9.00;99.90
2453;DHT22;63678;47.994;7.854;2023-11-21T06:51:30;9.00;99.90
2453;DHT22;63678;47.994;7.854;2023-11-21T06:56:36;9.10;99.90
2453;DHT22;63678;47.994;7.854;2023-11-21T07:01:41;9.00;99.90
2453;DHT22;63678;47.994;7.854;2023-11-21T07:06:46;9.10;99.90
2453;DHT22;63678;47.994;7.854;2023-11-21T07:09:19;9.10;99.90
2453;DHT22;63678;47.994;7.854;2023-11-21T07:11:55;9.10;99.90
2453;DHT22;63678;47.994;7.854;2023-11-21T07:14:29;9.20;99.90
2453;DHT22;63678;47.994;7.854;2023-11-21T07:17:01;9.10;99.90
2453;DHT22;63678;47.994;7.854;2023-11-21T07:19:35;9.10;99.90
2453;DHT22;63678;47.994;7.854;2023-11-21T07:22:08;9.20;99.90
2453;DHT22;63678;47.994;7.854;2023-11-21T07:27:15;9.10;99.90
2453;DHT22;63678;47.994;7.854;2023-11-21T07:29:48;9.10;99.90
2453;DHT22;63678;47.994;7.854;2023-11-21T07:32:20;9.20;99.90
2453;DHT22;63678;47.994;7.854;2023-11-21T07:34:53;9.20;99.90
2453;DHT22;63678;47.994;7.854;2023-11-21T07:45:08;9.30;99.90
2453;DHT22;63678;47.994;7.854;2023-11-21T07:47:41;9.40;99.90
2453;DHT22;63678;47.994;7.854;2023-11-21T07:50:36;9.30;99.90
2453;DHT22;63678;47.994;7.854;2023-11-21T07:53:10;9.30;99.90
2453;DHT22;63678;47.994;7.854;2023-11-21T07:58:18;9.50;99.90
2453;DHT22;63678;47.994;7.854;2023-11-21T08:00:51;9.60;99.90
2453;DHT22;63678;47.994;7.854;2023-11-21T08:03:46;9.60;99.90
2453;DHT22;63678;47.994;7.854;2023-11-21T08:08:56;9.70;99.90
2453;DHT22;63678;47.994;7.854;2023-11-21T08:11:29;9.70;99.90
2453;DHT22;63678;47.994;7.854;2023-11-21T08:16:38;9.60;99.90
2453;DHT22;63678;47.994;7.854;2023-11-21T08:19:11;9.60;99.90
2453;DHT22;63678;47.994;7.854;2023-11-21T08:29:27;9.70;99.90
2453;DHT22;63678;47.994;7.854;2023-11-21T08:31:59;9.80;99.90
2453;DHT22;63678;47.994;7.854;2023-11-21T08:34:53;9.80;99.90
2453;DHT22;63678;47.994;7.854;2023-11-21T08:37:26;9.80;99.90
2453;DHT22;63678;47.994;7.854;2023-11-21T08:40:06;9.70;99.90
2453;DHT22;63678;47.994;7.854;2023-11-21T08:42:46;9.60;99.90
2453;DHT22;63678;47.994;7.854;2023-11-21T08:45:23;9.60;99.90
2453;DHT22;63678;47.994;7.854;2023-11-21T08:50:37;9.60;99.90
2453;DHT22;63678;47.994;7.854;2023-11-21T08:56:06;9.80;99.90
2453;DHT22;63678;47.994;7.854;2023-11-21T09:01:57;9.80;99.90
2453;DHT22;63678;47.994;7.854;2023-11-21T09:07:02;13.00;99.90
2453;DHT22;63678;47.994;7.854;2023-11-21T09:12:07;11.50;99.90
2453;DHT22;63678;47.994;7.854;2023-11-21T09:14:43;10.90;99.90
2453;DHT22;63678;47.994;7.854;2023-11-21T09:19:51;10.20;99.90
2453;DHT22;63678;47.994;7.854;2023-11-21T09:22:23;10.40;99.90
2453;DHT22;63678;47.994;7.854;2023-11-21T09:32:40;10.20;99.90
2453;DHT22;63678;47.994;7.854;2023-11-21T09:35:13;10.20;99.90
2453;DHT22;63678;47.994;7.854;2023-11-21T09:37:46;10.20;99.90
2453;DHT22;63678;47.994;7.854;2023-11-21T09:40:22;10.10;99.90
2453;DHT22;63678;47.994;7.854;2023-11-21T09:42:56;10.00;99.90
2453;DHT22;63678;47.994;7.854;2023-11-21T09:45:32;10.00;99.90
2453;DHT22;63678;47.994;7.854;2023-11-21T09:50:42;10.00;99.90
2453;DHT22;63678;47.994;7.854;2023-11-21T09:53:19;9.90;99.90
2453;DHT22;63678;47.994;7.854;2023-11-21T09:55:54;10.00;99.90
2453;DHT22;63678;47.994;7.854;2023-11-21T10:01:01;9.90;99.90
2453;DHT22;63678;47.994;7.854;2023-11-21T10:03:35;9.70;99.90
2453;DHT22;63678;47.994;7.854;2023-11-21T10:06:13;9.80;99.90
2453;DHT22;63678;47.994;7.854;2023-11-21T10:08:46;9.90;99.90
2453;DHT22;63678;47.994;7.854;2023-11-21T10:11:27;9.90;99.90
2453;DHT22;63678;47.994;7.854;2023-11-21T10:16:39;9.80;99.90
2453;DHT22;63678;47.994;7.854;2023-11-21T10:19:12;9.80;99.90
2453;DHT22;63678;47.994;7.854;2023-11-21T10:21:49;9.70;99.90
2453;DHT22;63678;47.994;7.854;2023-11-21T10:24:23;9.80;99.90
2453;DHT22;63678;47.994;7.854;2023-11-21T10:29:31;9.90;99.90
2453;DHT22;63678;47.994;7.854;2023-11-21T10:34:40;10.00;99.90
2453;DHT22;63678;47.994;7.854;2023-11-21T10:37:13;10.00;99.90
2453;DHT22;63678;47.994;7.854;2023-11-21T10:39:49;10.10;99.90
2453;DHT22;63678;47.994;7.854;2023-11-21T10:47:30;9.80;99.90
2453;DHT22;63678;47.994;7.854;2023-11-21T10:50:04;9.80;99.90
2453;DHT22;63678;47.994;7.854;2023-11-21T10:55:21;9.80;99.90
2453;DHT22;63678;47.994;7.854;2023-11-21T10:57:58;9.60;99.90
2453;DHT22;63678;47.994;7.854;2023-11-21T11:00:32;9.70;99.90
2453;DHT22;63678;47.994;7.854;2023-11-21T11:03:05;9.50;99.90
2453;DHT22;63678;47.994;7.854;2023-11-21T11:08:25;9.50;99.90
2453;DHT22;63678;47.994;7.854;2023-11-21T11:10:59;9.50;99.90
2453;DHT22;63678;47.994;7.854;2023-11-21T11:13:32;9.40;99.90
2453;DHT22;63678;47.994;7.854;2023-11-21T11:16:05;9.50;99.90
2453;DHT22;63678;47.994;7.854;2023-11-21T11:18:39;9.60;99.90
2453;DHT22;63678;47.994;7.854;2023-11-21T11:21:27;9.10;99.90
2453;DHT22;63678;47.994;7.854;2023-11-21T11:24:40;9.70;99.90
2453;DHT22;63678;47.994;7.854;2023-11-21T11:27:58;9.60;99.90
2453;DHT22;63678;47.994;7.854;2023-11-21T11:33:48;9.50;99.90
2453;DHT22;63678;47.994;7.854;2023-11-21T11:36:44;9.50;99.90
2453;DHT22;63678;47.994;7.854;2023-11-21T11:42:03;9.50;99.90
2453;DHT22;63678;47.994;7.854;2023-11-21T11:50:01;9.50;99.90
2453;DHT22;63678;47.994;7.854;2023-11-21T11:52:53;9.50;99.90
2453;DHT22;63678;47.994;7.854;2023-11-21T11:55:27;9.50;99.90
2453;DHT22;63678;47.994;7.854;2023-11-21T11:58:06;9.50;99.90
2453;DHT22;63678;47.994;7.854;2023-11-21T12:00:39;9.50;99.90
2453;DHT22;63678;47.994;7.854;2023-11-21T12:03:13;9.40;99.90
2453;DHT22;63678;47.994;7.854;2023-11-21T12:05:46;9.40;99.90
2453;DHT22;63678;47.994;7.854;2023-11-21T12:08:20;9.60;99.90
2453;DHT22;63678;47.994;7.854;2023-11-21T12:13:28;9.50;99.90
2453;DHT22;63678;47.994;7.854;2023-11-21T12:16:00;9.60;99.90
2453;DHT22;63678;47.994;7.854;2023-11-21T12:21:05;9.70;99.90
2453;DHT22;63678;47.994;7.854;2023-11-21T12:26:14;9.70;99.90
2453;DHT22;63678;47.994;7.854;2023-11-21T12:28:52;9.60;99.90
2453;DHT22;63678;47.994;7.854;2023-11-21T12:31:30;9.60;99.90
2453;DHT22;63678;47.994;7.854;2023-11-21T12:34:04;9.60;99.90
2453;DHT22;63678;47.994;7.854;2023-11-21T12:36:36;9.60;99.90
2453;DHT22;63678;47.994;7.854;2023-11-21T12:39:09;9.60;99.90
2453;DHT22;63678;47.994;7.854;2023-11-21T12:44:15;9.60;99.90
2453;DHT22;63678;47.994;7.854;2023-11-21T12:49:20;9.60;99.90
2453;DHT22;63678;47.994;7.854;2023-11-21T12:51:54;9.70;99.90
2453;DHT22;63678;47.994;7.854;2023-11-21T12:54:26;9.70;99.90
2453;DHT22;63678;47.994;7.854;2023-11-21T12:56:59;9.80;99.90
2453;DHT22;63678;47.994;7.854;2023-11-21T12:59:33;9.80;99.90
2453;DHT22;63678;47.994;7.854;2023-11-21T13:04:40;9.80;99.90
2453;DHT22;63678;47.994;7.854;2023-11-21T13:07:13;9.80;99.90
2453;DHT22;63678;47.994;7.854;2023-11-21T13:09:46;9.80;99.90
2453;DHT22;63678;47.994;7.854;2023-11-21T13:12:24;9.90;99.90
2453;DHT22;63678;47.994;7.854;2023-11-21T13:14:57;10.00;99.90
2453;DHT22;63678;47.994;7.854;2023-11-21T13:17:36;10.10;99.90
2453;DHT22;63678;47.994;7.854;2023-11-21T13:20:09;10.00;99.90
2453;DHT22;63678;47.994;7.854;2023-11-21T13:22:57;9.90;99.90
2453;DHT22;63678;47.994;7.854;2023-11-21T13:25:31;10.00;99.90
2453;DHT22;63678;47.994;7.854;2023-11-21T13:28:03;9.90;99.90
2453;DHT22;63678;47.994;7.854;2023-11-21T13:30:36;9.90;99.90
2453;DHT22;63678;47.994;7.854;2023-11-21T13:33:09;10.00;99.90
2453;DHT22;63678;47.994;7.854;2023-11-21T13:35:44;9.80;99.90
2453;DHT22;63678;47.994;7.854;2023-11-21T13:40:56;9.90;99.90
2453;DHT22;63678;47.994;7.854;2023-11-21T13:51:27;9.90;99.90
2453;DHT22;63678;47.994;7.854;2023-11-21T13:54:17;10.00;99.90
2453;DHT22;63678;47.994;7.854;2023-11-21T13:59:25;10.30;99.90
2453;DHT22;63678;47.994;7.854;2023-11-21T14:04:48;10.10;99.90
2453;DHT22;63678;47.994;7.854;2023-11-21T14:07:28;10.00;99.90
2453;DHT22;63678;47.994;7.854;2023-11-21T14:10:09;10.00;99.90
2453;DHT22;63678;47.994;7.854;2023-11-21T14:12:46;10.10;99.90
2453;DHT22;63678;47.994;7.854;2023-11-21T14:17:51;10.10;99.90
2453;DHT22;63678;47.994;7.854;2023-11-21T14:20:24;10.20;99.90
2453;DHT22;63678;47.994;7.854;2023-11-21T14:22:56;10.10;99.90
2453;DHT22;63678;47.994;7.854;2023-11-21T14:28:03;10.10;99.90
2453;DHT22;63678;47.994;7.854;2023-11-21T14:30:36;10.00;99.90
2453;DHT22;63678;47.994;7.854;2023-11-21T14:33:13;10.00;99.90
2453;DHT22;63678;47.994;7.854;2023-11-21T14:35:45;9.90;99.90
2453;DHT22;63678;47.994;7.854;2023-11-21T14:45:59;9.90;99.90
2453;DHT22;63678;47.994;7.854;2023-11-21T14:48:32;9.90;99.90
2453;DHT22;63678;47.994;7.854;2023-11-21T14:51:19;9.80;99.90
2453;DHT22;63678;47.994;7.854;2023-11-21T14:53:58;9.90;99.90
2453;DHT22;63678;47.994;7.854;2023-11-21T14:59:11;9.90;99.90
2453;DHT22;63678;47.994;7.854;2023-11-21T15:01:48;9.90;99.90
2453;DHT22;63678;47.994;7.854;2023-11-21T15:17:26;9.80;99.90
2453;DHT22;63678;47.994;7.854;2023-11-21T15:22:32;9.70;99.90
2453;DHT22;63678;47.994;7.854;2023-11-21T15:27:42;9.70;99.90
2453;DHT22;63678;47.994;7.854;2023-11-21T15:30:16;9.70;99.90
2453;DHT22;63678;47.994;7.854;2023-11-21T15:32:52;9.70;99.90
2453;DHT22;63678;47.994;7.854;2023-11-21T15:38:01;9.60;99.90
2453;DHT22;63678;47.994;7.854;2023-11-21T15:40:34;9.60;99.90
2453;DHT22;63678;47.994;7.854;2023-11-21T15:43:06;9.60;99.90
2453;DHT22;63678;47.994;7.854;2023-11-21T15:50:45;9.60;99.90
2453;DHT22;63678;47.994;7.854;2023-11-21T15:55:51;9.60;99.90
2453;DHT22;63678;47.994;7.854;2023-11-21T15:58:23;9.50;99.90
2453;DHT22;63678;47.994;7.854;2023-11-21T16:00:58;9.50;99.90
2453;DHT22;63678;47.994;7.854;2023-11-21T16:06:05;9.50;99.90
2453;DHT22;63678;47.994;7.854;2023-11-21T16:11:14;9.50;99.90
2453;DHT22;63678;47.994;7.854;2023-11-21T16:16:21;9.60;99.90
2453;DHT22;63678;47.994;7.854;2023-11-21T16:18:54;9.50;99.90
2453;DHT22;63678;47.994;7.854;2023-11-21T16:21:27;9.50;99.90
2453;DHT22;63678;47.994;7.854;2023-11-21T16:23:59;9.40;99.90
2453;DHT22;63678;47.994;7.854;2023-11-21T16:26:31;9.50;99.90
2453;DHT22;63678;47.994;7.854;2023-11-21T16:29:04;9.40;99.90
2453;DHT22;63678;47.994;7.854;2023-11-21T16:34:14;9.50;99.90
2453;DHT22;63678;47.994;7.854;2023-11-21T16:39:24;9.50;99.90
2453;DHT22;63678;47.994;7.854;2023-11-21T16:52:23;9.40;99.90
2453;DHT22;63678;47.994;7.854;2023-11-21T16:54:55;9.40;99.90
2453;DHT22;63678;47.994;7.854;2023-11-21T17:00:03;9.40;99.90
2453;DHT22;63678;47.994;7.854;2023-11-21T17:02:38;9.40;99.90
2453;DHT22;63678;47.994;7.854;2023-11-21T17:05:34;9.40;99.90
2453;DHT22;63678;47.994;7.854;2023-11-21T17:08:06;9.30;99.90
2453;DHT22;63678;47.994;7.854;2023-11-21T17:10:42;9.40;99.90
2453;DHT22;63678;47.994;7.854;2023-11-21T17:13:19;9.40;99.90
2453;DHT22;63678;47.994;7.854;2023-11-21T17:15:51;9.40;99.90
2453;DHT22;63678;47.994;7.854;2023-11-21T17:18:23;9.40;99.90
2453;DHT22;63678;47.994;7.854;2023-11-21T17:20:56;9.40;99.90
2453;DHT22;63678;47.994;7.854;2023-11-21T17:23:28;9.30;99.90
2453;DHT22;63678;47.994;7.854;2023-11-21T17:26:00;9.40;99.90
2453;DHT22;63678;47.994;7.854;2023-11-21T17:28:33;9.30;99.90
2453;DHT22;63678;47.994;7.854;2023-11-21T17:33:39;9.30;99.90
2453;DHT22;63678;47.994;7.854;2023-11-21T17:36:14;9.30;99.90
2453;DHT22;63678;47.994;7.854;2023-11-21T17:38:47;9.40;99.90
2453;DHT22;63678;47.994;7.854;2023-11-21T17:41:22;9.30;99.90
2453;DHT22;63678;47.994;7.854;2023-11-21T17:49:00;9.40;99.90
2453;DHT22;63678;47.994;7.854;2023-11-21T17:51:37;9.30;99.90
2453;DHT22;63678;47.994;7.854;2023-11-21T17:54:13;9.30;99.90
2453;DHT22;63678;47.994;7.854;2023-11-21T17:56:46;9.30;99.90
2453;DHT22;63678;47.994;7.854;2023-11-21T18:07:03;9.40;99.90
2453;DHT22;63678;47.994;7.854;2023-11-21T18:12:11;9.40;99.90
2453;DHT22;63678;47.994;7.854;2023-11-21T18:14:44;9.40;99.90
2453;DHT22;63678;47.994;7.854;2023-11-21T18:17:20;9.40;99.90
2453;DHT22;63678;47.994;7.854;2023-11-21T18:19:53;9.30;99.90
2453;DHT22;63678;47.994;7.854;2023-11-21T18:22:27;9.30;99.90
2453;DHT22;63678;47.994;7.854;2023-11-21T18:27:32;9.30;99.90
2453;DHT22;63678;47.994;7.854;2023-11-21T18:30:05;9.30;99.90
2453;DHT22;63678;47.994;7.854;2023-11-21T18:32:38;9.30;99.90
2453;DHT22;63678;47.994;7.854;2023-11-21T18:37:45;9.30;99.90
2453;DHT22;63678;47.994;7.854;2023-11-21T18:42:51;9.40;99.90
2453;DHT22;63678;47.994;7.854;2023-11-21T18:45:24;9.30;99.90
2453;DHT22;63678;47.994;7.854;2023-11-21T18:47:56;9.30;99.90
2453;DHT22;63678;47.994;7.854;2023-11-21T18:50:28;9.30;99.90
2453;DHT22;63678;47.994;7.854;2023-11-21T18:55:35;9.30;99.90
2453;DHT22;63678;47.994;7.854;2023-11-21T19:00:40;9.30;99.90
2453;DHT22;63678;47.994;7.854;2023-11-21T19:03:12;9.30;99.90
2453;DHT22;63678;47.994;7.854;2023-11-21T19:05:45;9.40;99.90
2453;DHT22;63678;47.994;7.854;2023-11-21T19:08:17;9.40;99.90
2453;DHT22;63678;47.994;7.854;2023-11-21T19:13:22;9.40;99.90
2453;DHT22;63678;47.994;7.854;2023-11-21T19:15:56;9.30;99.90
2453;DHT22;63678;47.994;7.854;2023-11-21T19:18:28;9.30;99.90
2453;DHT22;63678;47.994;7.854;2023-11-21T19:21:01;9.30;99.90
2453;DHT22;63678;47.994;7.854;2023-11-21T19:23:33;9.30;99.90
2453;DHT22;63678;47.994;7.854;2023-11-21T19:26:05;9.30;99.90
2453;DHT22;63678;47.994;7.854;2023-11-21T19:28:38;9.30;99.90
2453;DHT22;63678;47.994;7.854;2023-11-21T19:31:21;9.20;99.90
2453;DHT22;63678;47.994;7.854;2023-11-21T19:44:06;10.20;99.90
2453;DHT22;63678;47.994;7.854;2023-11-21T19:49:11;9.30;99.90
2453;DHT22;63678;47.994;7.854;2023-11-21T19:51:44;9.20;99.90
2453;DHT22;63678;47.994;7.854;2023-11-21T20:01:55;9.20;99.90
2453;DHT22;63678;47.994;7.854;2023-11-21T20:04:28;9.10;99.90
2453;DHT22;63678;47.994;7.854;2023-11-21T20:09:34;9.10;99.90
2453;DHT22;63678;47.994;7.854;2023-11-21T20:12:08;9.30;99.90
2453;DHT22;63678;47.994;7.854;2023-11-21T20:14:40;9.40;99.90
2453;DHT22;63678;47.994;7.854;2023-11-21T20:19:46;8.90;99.90
2453;DHT22;63678;47.994;7.854;2023-11-21T20:24:54;9.00;99.90
2453;DHT22;63678;47.994;7.854;2023-11-21T20:27:27;9.10;99.90
2453;DHT22;63678;47.994;7.854;2023-11-21T20:29:59;9.10;99.90
2453;DHT22;63678;47.994;7.854;2023-11-21T20:35:07;9.10;99.90
2453;DHT22;63678;47.994;7.854;2023-11-21T20:37:40;9.10;99.90
2453;DHT22;63678;47.994;7.854;2023-11-21T20:40:14;9.10;99.90
2453;DHT22;63678;47.994;7.854;2023-11-21T20:45:19;9.00;99.90
2453;DHT22;63678;47.994;7.854;2023-11-21T20:47:55;9.20;99.90
2453;DHT22;63678;47.994;7.854;2023-11-21T20:53:02;9.10;99.90
2453;DHT22;63678;47.994;7.854;2023-11-21T21:00:45;9.00;99.90
2453;DHT22;63678;47.994;7.854;2023-11-21T21:03:17;9.00;99.90
2453;DHT22;63678;47.994;7.854;2023-11-21T21:05:50;8.90;99.90
2453;DHT22;63678;47.994;7.854;2023-11-21T21:08:23;8.90;99.90
2453;DHT22;63678;47.994;7.854;2023-11-21T21:23:43;9.10;99.90
2453;DHT22;63678;47.994;7.854;2023-11-21T21:26:17;9.10;99.90
2453;DHT22;63678;47.994;7.854;2023-11-21T21:33:58;9.10;99.90
2453;DHT22;63678;47.994;7.854;2023-11-21T21:36:30;9.10;99.90
2453;DHT22;63678;47.994;7.854;2023-11-21T21:39:04;9.10;99.90
2453;DHT22;63678;47.994;7.854;2023-11-21T21:44:10;9.10;99.90
2453;DHT22;63678;47.994;7.854;2023-11-21T21:46:43;9.10;99.90
2453;DHT22;63678;47.994;7.854;2023-11-21T21:49:15;9.10;99.90
2453;DHT22;63678;47.994;7.854;2023-11-21T21:51:48;9.10;99.90
2453;DHT22;63678;47.994;7.854;2023-11-21T21:54:20;9.10;99.90
2453;DHT22;63678;47.994;7.854;2023-11-21T21:56:52;9.10;99.90
2453;DHT22;63678;47.994;7.854;2023-11-21T21:59:25;9.00;99.90
2453;DHT22;63678;47.994;7.854;2023-11-21T22:01:59;9.00;99.90
2453;DHT22;63678;47.994;7.854;2023-11-21T22:04:32;9.10;99.90
2453;DHT22;63678;47.994;7.854;2023-11-21T22:07:06;9.10;99.90
2453;DHT22;63678;47.994;7.854;2023-11-21T22:12:11;9.00;99.90
2453;DHT22;63678;47.994;7.854;2023-11-21T22:17:17;9.00;99.90
2453;DHT22;63678;47.994;7.854;2023-11-21T22:24:58;9.00;99.90
2453;DHT22;63678;47.994;7.854;2023-11-21T22:27:31;9.00;99.90
2453;DHT22;63678;47.994;7.854;2023-11-21T22:30:04;9.00;99.90
2453;DHT22;63678;47.994;7.854;2023-11-21T22:32:37;9.00;99.90
2453;DHT22;63678;47.994;7.854;2023-11-21T22:35:09;9.00;99.90
2453;DHT22;63678;47.994;7.854;2023-11-21T22:37:42;9.00;99.90
2453;DHT22;63678;47.994;7.854;2023-11-21T22:40:15;9.00;99.90
2453;DHT22;63678;47.994;7.854;2023-11-21T22:42:47;9.00;99.90
2453;DHT22;63678;47.994;7.854;2023-11-21T22:45:20;9.00;99.90
2453;DHT22;63678;47.994;7.854;2023-11-21T22:47:54;9.00;99.90
2453;DHT22;63678;47.994;7.854;2023-11-21T22:53:00;9.00;99.90
2453;DHT22;63678;47.994;7.854;2023-11-21T22:55:32;9.00;99.90
2453;DHT22;63678;47.994;7.854;2023-11-21T22:58:05;9.00;99.90
2453;DHT22;63678;47.994;7.854;2023-11-21T23:00:38;9.00;99.90
2453;DHT22;63678;47.994;7.854;2023-11-21T23:05:44;9.00;99.90
2453;DHT22;63678;47.994;7.854;2023-11-21T23:08:16;9.00;99.90